Decoded Metar for YPWR (WOOMERA in AUSTRALIA) (IATA:UMR) | Meteo·Mobile Aviation Weather
aviador You're here:

YPWR Decoded Metar

WOOMERA in AUSTRALIA
Report Time2019-07-21 18:00:00
UTC Time2019-07-21 18:30:05
Flight Rules vfr VFR
Wind350° at 10 kt
W.Decomp.*RWY 36: 9.7 kt HW 2.6 kt LCW
RWY 30: 7.1 kt HW 7.1 kt RCW
Visibility9999 m
Phenomena:N/A
Clouds:N/A
Expected CloudBase > 2,400 ft AGL from Temp-Dew spread
CeilingNone
Temp08°C (ISA -6)
Dew Point02°C (66% RH)
AAT2.7°C
QNH1016 hPa
Density Alt-164 ft
Elevation548 ft
Report Wrong Elevation
Raw Report
METAR YPWR 211800Z AUTO 35010KT 9999 // NCD 08/02 Q1016=

Extra information for YPWR:More info

Metar Taf Metar & Taf Last 4 Metars F.Rules Stats Wind Profile Meteogram Temp Stats Airport Information Weather charts Add Link Nearby VenuesMetar ALERT Operation Metar Decoded Social comments